Latest Weather Observations for Mount Boyce

IDN60801

Issued at 11:05 am EST Wednesday 17 September 2014 (issued every 30 minutes, with the page automatically refreshed every 10 minutes)

About weather observations | Map of weather stations | Latest weather observations for NSW | Other Formats
Station Details ID: 063292 Name: MOUNT BOYCE AWS Lat: -33.62 Lon: 150.27 Height: 1080.0 m
Data from the previous 72 hours. | See also: Recent months at Mount Boyce
Date/Time
EST
Temp
°C
App
Temp
°C
Dew
Point
Rel
Hum
%
Delta-T
°C
Wind Press
QNH
hPa
Press
MSL
hPa
Rain
since 9 am
mm
Dir
 
Spd
km/h
Gust
km/h
Spd
kts
Gust
kts
17/11:05am 9.5 0.8 -0.4 50 4.2 WSW 35 54 19 29 - - 0.0
17/11:00am 9.9 0.9 0.3 51 4.2 WSW 37 52 20 28 - - 0.0
17/10:31am 8.6 -1.6 -0.4 53 3.8 WSW 43 67 23 36 - - 0.0
17/10:30am 8.6 -1.2 -0.4 53 3.8 WSW 41 57 22 31 - - 0.0
17/10:00am 8.9 0.3 0.4 55 3.7 WSW 35 56 19 30 - - 0.0
17/09:32am 8.1 -0.5 0.1 57 3.4 WSW 35 56 19 30 - - 0.0
17/09:30am 8.0 -0.3 0.0 57 3.4 WSW 33 50 18 27 - - 0.0
17/09:18am 7.7 -0.3 0.7 61 3.0 WSW 32 50 17 27 - - 0.0
17/09:00am 7.1 -1.0 0.8 64 2.7 WSW 33 50 18 27 - - 0.0
17/08:33am 6.6 -1.9 0.7 66 2.5 WSW 35 54 19 29 - - 0.0
17/08:30am 6.6 -2.3 0.7 66 2.5 WSW 37 54 20 29 - - 0.0
17/08:00am 6.0 -2.1 0.8 69 2.2 WSW 33 52 18 28 - - 0.0
17/07:30am 6.0 -2.5 1.2 71 2.0 WSW 35 56 19 30 - - 0.0
17/07:12am 5.9 -2.0 1.2 72 2.0 WSW 32 50 17 27 - - 0.0
17/07:00am 5.7 -1.4 1.2 73 1.9 WSW 28 44 15 24 - - 0.0
17/06:35am 5.3 -2.2 1.1 74 1.8 WSW 30 48 16 26 - - 0.0
17/06:30am 5.3 -2.6 1.2 75 1.7 W 32 44 17 24 - - 0.0
17/06:00am 5.5 -3.3 1.6 76 1.7 WSW 37 56 20 30 - - 0.0
17/05:36am 5.8 -2.5 1.9 76 1.7 WSW 35 54 19 29 - - 0.0
17/05:30am 5.8 -2.2 1.9 76 1.7 WSW 33 46 18 25 - - 0.0
17/05:02am 5.9 -1.4 2.7 80 1.4 WSW 30 48 16 26 - - 0.0
17/05:00am 5.8 -1.5 2.6 80 1.4 WSW 30 43 16 23 - - 0.0
17/04:30am 6.1 -1.5 3.1 81 1.3 WSW 32 43 17 23 - - 0.0
17/04:00am 6.5 -0.6 3.7 82 1.3 WSW 30 44 16 24 - - 0.0
17/03:34am 6.9 -0.5 3.9 81 1.4 WSW 32 50 17 27 - - 0.0
17/03:30am 6.9 -0.7 3.9 81 1.4 WSW 33 48 18 26 - - 0.0
17/03:05am 7.1 -0.8 4.2 82 1.3 WSW 35 54 19 29 - - 0.0
17/03:00am 7.1 -0.8 4.4 83 1.3 WSW 35 46 19 25 - - 0.0
17/02:53am 7.1 -0.7 4.8 85 1.1 WSW 35 48 19 26 - - 0.0
17/02:33am 7.1 0.0 5.3 88 0.9 WSW 32 52 17 28 - - 0.0
17/02:30am 7.1 0.0 5.4 89 0.8 WSW 32 46 17 25 - - 0.0
17/02:17am 6.9 -0.2 5.7 92 0.6 WSW 32 46 17 25 - - 0.0
17/02:08am 6.8 0.5 5.6 92 0.6 WSW 28 46 15 25 - - 0.0
17/02:05am 6.8 0.5 5.6 92 0.6 W 28 39 15 21 - - 0.0
17/02:00am 7.0 0.7 5.5 90 0.7 W 28 39 15 21 - - 0.0
17/01:30am 7.2 1.6 5.3 88 0.9 W 24 39 13 21 - - 0.0
17/01:00am 7.4 0.9 4.9 84 1.2 WSW 28 43 15 23 - - 0.0
17/12:58am 7.4 0.9 4.9 84 1.2 WSW 28 43 15 23 - - 0.0
17/12:42am 7.4 0.1 4.7 83 1.3 WSW 32 50 17 27 - - 0.0
17/12:30am 7.4 0.9 4.7 83 1.3 WSW 28 43 15 23 - - 0.0
17/12:04am 7.4 0.1 4.5 82 1.4 WSW 32 50 17 27 - - 0.0
17/12:00am 7.3 0.0 4.4 82 1.3 WSW 32 46 17 25 - - 0.0
 
Date/Time
EST
Temp
°C
App
Temp
°C
Dew
Point
Rel
Hum
%
Delta-T
°C
Wind Press
QNH
hPa
Press
MSL
hPa
Rain
since 9 am
mm
Dir
 
Spd
km/h
Gust
km/h
Spd
kts
Gust
kts
16/11:30pm 7.3 -1.7 4.4 82 1.3 WSW 41 74 22 40 - - 0.0
16/11:00pm 7.7 -0.5 4.5 80 1.5 WSW 37 61 20 33 - - 0.0
16/10:30pm 7.6 -0.3 4.6 81 1.4 WSW 35 54 19 29 - - 0.0
16/10:00pm 7.6 -0.6 4.7 82 1.4 WSW 37 56 20 30 - - 0.0
16/09:39pm 7.5 -0.3 5.0 84 1.2 WSW 35 54 19 29 - - 0.0
16/09:30pm 7.5 -1.4 5.1 85 1.1 W 41 65 22 35 - - 0.0
16/09:19pm 7.5 -1.8 5.1 85 1.1 W 43 61 23 33 - - 0.0
16/09:18pm 7.5 -2.0 5.1 85 1.1 W 44 61 24 33 - - 0.0
16/09:05pm 7.5 1.1 5.0 84 1.2 W 28 46 15 25 - - 0.0
16/09:00pm 7.6 1.2 5.1 84 1.2 W 28 43 15 23 - - 0.0
16/08:30pm 7.6 1.6 5.1 84 1.2 W 26 37 14 20 - - 0.0
16/08:00pm 7.6 1.1 4.7 82 1.4 W 28 43 15 23 - - 0.0
16/07:30pm 7.6 1.1 4.7 82 1.4 W 28 43 15 23 - - 0.0
16/07:00pm 7.9 0.1 4.7 80 1.5 WSW 35 56 19 30 - - 0.0
16/06:30pm 8.2 1.0 5.1 81 1.5 W 32 50 17 27 - - 0.0
16/06:16pm 8.3 1.9 5.1 80 1.5 W 28 48 15 26 - - 0.0
16/06:00pm 8.3 1.9 5.1 80 1.5 W 28 44 15 24 - - 0.0
16/05:30pm 8.7 2.9 4.5 75 2.0 W 24 35 13 19 - - 0.0
16/05:00pm 9.1 3.7 4.7 74 2.1 W 22 39 12 21 - - 0.0
16/04:34pm 9.4 1.5 4.2 70 2.4 W 35 54 19 29 - - 0.0
16/04:30pm 9.4 0.3 4.0 69 2.5 W 41 57 22 31 - - 0.0
16/04:00pm 10.3 2.8 4.7 68 2.7 W 33 56 18 30 - - 0.0
16/03:30pm 11.5 4.6 4.5 62 3.4 W 30 52 16 28 - - 0.0
16/03:04pm 11.8 5.2 4.3 60 3.6 W 28 46 15 25 - - 0.0
16/03:00pm 12.1 6.0 4.6 60 3.6 W 26 41 14 22 - - 0.0
16/02:33pm 12.0 5.3 3.8 57 3.9 W 28 50 15 27 - - 0.0
16/02:30pm 12.6 6.4 4.1 56 4.1 W 26 44 14 24 - - 0.0
16/02:00pm 13.1 6.5 4.3 55 4.3 WSW 28 52 15 28 - - 0.0
16/01:52pm 13.0 6.4 4.2 55 4.3 W 28 46 15 25 - - 0.0
16/01:30pm 13.9 7.8 5.0 55 4.4 W 26 41 14 22 - - 0.0
16/01:05pm 13.3 6.7 4.2 54 4.4 W 28 57 15 31 - - 0.0
16/01:00pm 14.1 7.6 4.7 53 4.6 W 28 44 15 24 - - 0.0
16/12:30pm 14.8 8.8 5.1 52 4.8 W 26 43 14 23 - - 0.0
16/12:00pm 15.1 8.9 4.5 49 5.2 W 26 43 14 23 - - 0.0
16/11:30am 15.7 10.6 4.1 46 5.7 W 20 33 11 18 - - 0.0
16/11:00am 15.5 10.6 5.1 50 5.2 NW 20 33 11 18 - - 0.0
16/10:30am 14.8 9.4 4.5 50 5.1 NW 22 30 12 16 - - 0.0
16/10:00am 14.6 11.3 6.4 58 4.2 WNW 13 20 7 11 - - 0.0
16/09:30am 14.7 12.6 8.2 65 3.5 N 9 20 5 11 - - 0.0
16/09:00am 12.3 10.2 8.2 76 2.1 NNE 9 13 5 7 - - 0.4
16/08:30am 10.8 8.3 6.7 76 2.1 NNE 9 15 5 8 - - 0.4
16/08:00am 11.3 8.3 7.8 79 1.8 NE 13 22 7 12 - - 0.4
16/07:30am 9.9 7.0 6.6 80 1.6 NE 11 20 6 11 - - 0.4
16/07:00am 8.9 5.2 6.2 83 1.3 NE 15 24 8 13 - - 0.4
16/06:30am 8.0 5.0 6.0 87 1.0 ENE 11 15 6 8 - - 0.2
16/06:00am 9.8 5.9 5.4 74 2.1 NNE 15 20 8 11 - - 0.2
16/05:30am 8.8 5.9 6.4 85 1.2 NNE 11 17 6 9 - - 0.2
16/05:07am 7.5 4.6 6.6 94 0.4 ENE 11 19 6 10 - - 0.2
16/05:00am 7.7 4.4 6.6 93 0.5 NE 13 20 7 11 - - 0.2
16/04:49am 8.0 5.2 6.9 93 0.5 NE 11 17 6 9 - - 0.2
16/04:30am 7.5 5.4 6.6 94 0.4 NE 7 11 4 6 - - 0.2
16/04:12am 8.0 6.3 7.4 96 0.3 NE 6 15 3 8 - - 0.2
16/04:10am 7.9 6.6 7.5 97 0.2 N 4 11 2 6 - - 0.2
16/04:09am 8.0 6.7 7.6 97 0.2 NW 4 11 2 6 - - 0.2
16/04:00am 8.3 6.5 8.0 98 0.2 NNW 7 17 4 9 - - 0.2
16/03:30am 8.2 5.2 7.9 98 0.2 ENE 13 20 7 11 - - 0.2
16/03:00am 8.3 6.1 8.0 98 0.2 NE 9 17 5 9 - - 0.2
16/02:30am 8.3 5.8 8.0 98 0.2 ENE 11 19 6 10 - - 0.2
16/02:00am 8.3 5.4 8.0 98 0.2 ENE 13 24 7 13 - - 0.2
16/01:30am 8.4 5.5 8.0 97 0.2 ENE 13 17 7 9 - - 0.2
16/01:00am 8.7 5.9 8.4 98 0.2 ENE 13 17 7 9 - - 0.2
16/12:30am 9.0 6.6 8.7 98 0.2 ENE 11 17 6 9 - - 0.2
16/12:00am 9.0 6.6 8.5 97 0.3 ENE 11 20 6 11 - - 0.2
 
Date/Time
EST
Temp
°C
App
Temp
°C
Dew
Point
Rel
Hum
%
Delta-T
°C
Wind Press
QNH
hPa
Press
MSL
hPa
Rain
since 9 am
mm
Dir
 
Spd
km/h
Gust
km/h
Spd
kts
Gust
kts
15/11:30pm 8.9 6.4 8.3 96 0.3 ENE 11 13 6 7 - - 0.2
15/11:28pm 8.9 6.8 8.3 96 0.3 ENE 9 13 5 7 - - 0.2
15/11:12pm 9.3 8.3 8.8 97 0.3 NE 4 11 2 6 - - 0.2
15/11:00pm 9.4 8.8 8.9 97 0.3 NE 2 9 1 5 - - 0.0
15/10:30pm 9.2 8.9 8.7 97 0.3 CALM 0 0 0 0 - - 0.0
15/10:00pm 9.1 8.8 8.5 96 0.3 CALM 0 6 0 3 - - 0.0
15/09:41pm 8.9 6.8 8.1 95 0.4 ENE 9 13 5 7 - - 0.0
15/09:30pm 8.8 6.6 8.0 95 0.4 ENE 9 13 5 7 - - 0.0
15/09:14pm 8.8 6.6 8.0 95 0.4 ENE 9 11 5 6 - - 0.0
15/09:00pm 8.6 6.4 7.7 94 0.5 ENE 9 13 5 7 - - 0.0
15/08:47pm 8.7 6.5 7.8 94 0.5 ENE 9 15 5 8 - - 0.0
15/08:30pm 8.9 6.4 8.0 94 0.5 ENE 11 15 6 8 - - 0.0
15/08:13pm 9.1 6.6 8.2 94 0.5 ENE 11 13 6 7 - - 0.0
15/08:00pm 8.9 6.0 8.0 94 0.5 ENE 13 19 7 10 - - 0.0
15/07:30pm 8.9 6.2 7.2 89 0.9 ENE 11 17 6 9 - - 0.0
15/07:00pm 9.2 6.3 6.5 83 1.3 ENE 11 20 6 11 - - 0.0
15/06:30pm 9.3 6.6 5.7 78 1.8 ENE 9 13 5 7 - - 0.0
15/06:00pm 10.2 7.6 6.0 75 2.1 ENE 9 15 5 8 - - 0.0
15/05:30pm 11.4 8.8 6.3 71 2.6 ENE 9 15 5 8 - - 0.0
15/05:00pm 12.7 10.2 6.7 67 3.1 E 9 13 5 7 - - 0.0
15/04:30pm 13.8 11.4 6.9 63 3.6 E 9 13 5 7 - - 0.0
15/04:00pm 14.7 12.6 6.5 58 4.2 E 7 13 4 7 - - 0.0
15/03:30pm 16.6 13.6 6.1 50 5.4 ENE 11 19 6 10 - - 0.0
15/03:00pm 16.7 14.9 3.7 42 6.4 SW 2 7 1 4 - - 0.0
15/02:30pm 16.5 14.1 2.2 38 6.8 NW 4 15 2 8 - - 0.0
15/02:00pm 16.9 13.5 2.1 37 7.1 ENE 9 13 5 7 - - 0.0
15/01:30pm 16.4 13.1 2.4 39 6.7 SW 9 15 5 8 - - 0.0
15/01:00pm 15.5 12.1 1.6 39 6.5 WNW 9 19 5 10 - - 0.0
15/12:30pm 14.6 11.5 1.2 40 6.2 SW 7 17 4 9 - - 0.0
15/12:00pm 14.8 11.4 2.0 42 6.0 WNW 9 13 5 7 - - 0.0
15/11:30am 13.4 9.0 0.4 41 5.8 W 13 20 7 11 - - 0.0
15/11:00am 13.8 10.2 0.8 41 5.9 NW 9 17 5 9 - - 0.0
15/10:30am 13.0 9.5 1.0 44 5.4 WNW 9 13 5 7 - - 0.0
15/10:00am 12.1 8.1 0.5 45 5.1 W 11 17 6 9 - - 0.0
15/09:30am 11.1 7.3 -0.4 45 5.0 WNW 9 13 5 7 - - 0.0
15/09:00am 10.1 5.8 -1.6 44 4.9 W 11 13 6 7 - - 0.2
15/08:30am 9.1 5.4 -0.2 52 3.9 W 9 11 5 6 - - 0.2
15/08:00am 8.3 5.3 1.7 63 2.9 W 7 9 4 5 - - 0.2
15/07:30am 6.7 3.8 2.6 75 1.8 W 7 9 4 5 - - 0.2
15/07:00am 6.0 2.7 2.5 78 1.5 W 9 11 5 6 - - 0.2
15/06:30am 5.2 1.8 1.9 79 1.4 WNW 9 11 5 6 - - 0.2
15/06:00am 5.2 2.5 2.6 83 1.1 W 6 7 3 4 - - 0.2
15/05:30am 5.2 2.5 2.4 82 1.2 W 6 7 3 4 - - 0.2
15/05:00am 5.1 2.2 2.5 83 1.1 WNW 7 9 4 5 - - 0.2
15/04:30am 5.2 2.2 2.2 81 1.3 W 7 9 4 5 - - 0.2
15/04:00am 6.0 3.0 2.3 77 1.6 W 7 9 4 5 - - 0.2
15/03:30am 6.3 3.3 2.2 75 1.8 W 7 9 4 5 - - 0.2
15/03:00am 6.5 3.6 2.6 76 1.7 W 7 9 4 5 - - 0.2
15/02:30am 6.4 3.4 1.9 73 2.0 W 7 9 4 5 - - 0.2
15/02:00am 6.6 3.6 1.9 72 2.0 W 7 9 4 5 - - 0.2
15/01:30am 7.0 3.6 1.7 69 2.3 W 9 9 5 5 - - 0.2
15/01:00am 6.9 3.9 2.0 71 2.1 W 7 9 4 5 - - 0.2
15/12:30am 6.8 3.0 1.7 70 2.2 W 11 13 6 7 - - 0.2
15/12:00am 7.3 3.9 1.8 68 2.4 SW 9 11 5 6 - - 0.2
 
Date/Time
EST
Temp
°C
App
Temp
°C
Dew
Point
Rel
Hum
%
Delta-T
°C
Wind Press
QNH
hPa
Press
MSL
hPa
Rain
since 9 am
mm
Dir
 
Spd
km/h
Gust
km/h
Spd
kts
Gust
kts
14/11:30pm 7.7 4.6 1.5 65 2.7 WSW 7 9 4 5 - - 0.2
14/11:00pm 7.7 5.5 1.1 63 2.8 W 2 6 1 3 - - 0.2
14/10:30pm 7.8 4.6 1.0 62 2.9 W 7 9 4 5 - - 0.2
14/10:00pm 8.5 5.3 0.7 58 3.4 WNW 7 9 4 5 - - 0.2
14/09:30pm 9.1 6.1 0.8 56 3.6 W 6 9 3 5 - - 0.2
14/09:00pm 9.4 6.4 0.8 55 3.7 W 6 9 3 5 - - 0.2
14/08:30pm 9.6 6.5 1.3 56 3.7 W 7 11 4 6 - - 0.2
14/08:00pm 9.8 6.6 0.9 54 3.9 W 7 9 4 5 - - 0.2
14/07:30pm 10.8 7.2 0.8 50 4.4 W 9 13 5 7 - - 0.2
14/07:00pm 11.1 7.1 0.5 48 4.7 W 11 15 6 8 - - 0.2
14/06:30pm 11.6 6.4 0.4 46 4.9 WSW 17 24 9 13 - - 0.2
14/06:00pm 12.4 7.7 0.8 45 5.2 WSW 15 20 8 11 - - 0.2
14/05:30pm 14.3 9.0 -0.9 35 6.7 W 17 26 9 14 - - 0.2
14/05:00pm 15.1 8.6 -2.8 29 7.6 W 22 32 12 17 - - 0.2
14/04:30pm 15.6 8.7 -2.3 29 7.7 W 24 39 13 21 - - 0.2
14/04:00pm 16.4 11.3 2.8 40 6.6 W 19 28 10 15 - - 0.2
14/03:30pm 16.4 11.2 3.5 42 6.3 W 20 32 11 17 - - 0.2
14/03:00pm 16.3 10.4 4.0 44 6.1 W 24 33 13 18 - - 0.2
14/02:30pm 16.3 10.9 4.7 46 5.8 W 22 35 12 19 - - 0.2
14/02:00pm 16.1 10.3 2.5 40 6.5 W 22 32 12 17 - - 0.2
14/01:30pm 16.4 11.3 0.9 35 7.2 W 17 28 9 15 - - 0.2
14/01:00pm 15.6 9.5 0.2 35 7.0 W 22 35 12 19 - - 0.2
14/12:30pm 15.5 9.4 0.1 35 7.0 W 22 33 12 18 - - 0.2
14/12:00pm 14.9 9.3 1.4 40 6.3 W 20 35 11 19 - - 0.2
14/11:30am 14.7 10.0 3.2 46 5.5 WSW 17 30 9 16 - - 0.2

Other Formats:

Comma delimited format used in spreadsheet applications
http://www.bom.gov.au/fwo/IDN60801/IDN60801.94743.axf

JavaScript Object Notation format (JSON) in row-major order
http://www.bom.gov.au/fwo/IDN60801/IDN60801.94743.json